sensor_id;sensor_type;location;lat;lon;timestamp;pressure;altitude;pressure_sealevel;temperature;humidity
31337;BME280;22846;42.654;23.314;2023-12-20T00:02:25;94841.94;;;22.93;48.46
31337;BME280;22846;42.654;23.314;2023-12-20T00:04:50;94841.13;;;22.96;48.37
31337;BME280;22846;42.654;23.314;2023-12-20T00:07:16;94843.06;;;22.95;48.34
31337;BME280;22846;42.654;23.314;2023-12-20T00:09:41;94827.97;;;22.91;48.76
31337;BME280;22846;42.654;23.314;2023-12-20T00:12:07;94830.28;;;22.92;48.42
31337;BME280;22846;42.654;23.314;2023-12-20T00:14:32;94836.94;;;22.91;48.45
31337;BME280;22846;42.654;23.314;2023-12-20T00:16:58;94829.94;;;22.90;48.71
31337;BME280;22846;42.654;23.314;2023-12-20T00:19:23;94824.94;;;22.89;48.45
31337;BME280;22846;42.654;23.314;2023-12-20T00:21:49;94802.31;;;22.72;48.59
31337;BME280;22846;42.654;23.314;2023-12-20T00:24:14;94819.13;;;22.87;48.77
31337;BME280;22846;42.654;23.314;2023-12-20T00:26:40;94814.09;;;22.85;48.72
31337;BME280;22846;42.654;23.314;2023-12-20T00:29:05;94814.09;;;22.85;48.96
31337;BME280;22846;42.654;23.314;2023-12-20T00:31:30;94813.75;;;22.83;48.94
31337;BME280;22846;42.654;23.314;2023-12-20T00:33:59;94795.25;;;22.75;48.80
31337;BME280;22846;42.654;23.314;2023-12-20T00:36:24;94803.69;;;22.80;49.03
31337;BME280;22846;42.654;23.314;2023-12-20T00:38:50;94779.84;;;22.68;48.74
31337;BME280;22846;42.654;23.314;2023-12-20T00:41:16;94800.59;;;22.78;48.85
31337;BME280;22846;42.654;23.314;2023-12-20T00:43:42;94781.69;;;22.71;48.91
31337;BME280;22846;42.654;23.314;2023-12-20T00:46:07;94787.41;;;22.77;48.95
31337;BME280;22846;42.654;23.314;2023-12-20T00:48:33;94779.75;;;22.72;48.94
31337;BME280;22846;42.654;23.314;2023-12-20T00:50:58;94788.59;;;22.76;48.94
31337;BME280;22846;42.654;23.314;2023-12-20T00:53:23;94766.03;;;22.59;49.03
31337;BME280;22846;42.654;23.314;2023-12-20T00:55:49;94781.69;;;22.71;49.17
31337;BME280;22846;42.654;23.314;2023-12-20T00:58:15;94782.88;;;22.70;49.11
31337;BME280;22846;42.654;23.314;2023-12-20T01:00:41;94781.69;;;22.71;49.05
31337;BME280;22846;42.654;23.314;2023-12-20T01:03:08;94775.13;;;22.69;49.17
31337;BME280;22846;42.654;23.314;2023-12-20T01:05:33;94768.94;;;22.68;49.25
31337;BME280;22846;42.654;23.314;2023-12-20T01:07:59;94760.56;;;22.59;49.32
31337;BME280;22846;42.654;23.314;2023-12-20T01:10:25;94767.81;;;22.66;49.14
31337;BME280;22846;42.654;23.314;2023-12-20T01:12:53;94764.31;;;22.65;49.43
31337;BME280;22846;42.654;23.314;2023-12-20T01:15:18;94752.06;;;22.57;49.45
31337;BME280;22846;42.654;23.314;2023-12-20T01:17:44;94753.59;;;22.58;49.32
31337;BME280;22846;42.654;23.314;2023-12-20T01:20:09;94763.22;;;22.63;49.17
31337;BME280;22846;42.654;23.314;2023-12-20T01:22:35;94760.50;;;22.63;49.27
31337;BME280;22846;42.654;23.314;2023-12-20T01:25:01;94739.69;;;22.53;49.20
31337;BME280;22846;42.654;23.314;2023-12-20T01:27:27;94745.00;;;22.60;49.34
31337;BME280;22846;42.654;23.314;2023-12-20T01:29:53;94732.78;;;22.48;49.56
31337;BME280;22846;42.654;23.314;2023-12-20T01:32:18;94739.97;;;22.58;49.51
31337;BME280;22846;42.654;23.314;2023-12-20T01:34:43;94733.75;;;22.58;49.53
31337;BME280;22846;42.654;23.314;2023-12-20T01:37:09;94735.00;;;22.53;49.22
31337;BME280;22846;42.654;23.314;2023-12-20T01:39:34;94718.81;;;22.46;49.48
31337;BME280;22846;42.654;23.314;2023-12-20T01:42:00;94731.09;;;22.54;49.27
31337;BME280;22846;42.654;23.314;2023-12-20T01:44:26;94727.63;;;22.54;49.53
31337;BME280;22846;42.654;23.314;2023-12-20T01:46:52;94713.72;;;22.48;49.31
31337;BME280;22846;42.654;23.314;2023-12-20T01:49:17;94704.09;;;22.44;49.76
31337;BME280;22846;42.654;23.314;2023-12-20T01:51:43;94704.03;;;22.47;49.45
31337;BME280;22846;42.654;23.314;2023-12-20T01:54:09;94711.34;;;22.50;49.73
31337;BME280;22846;42.654;23.314;2023-12-20T01:56:34;94706.31;;;22.49;49.63
31337;BME280;22846;42.654;23.314;2023-12-20T01:59:00;94706.31;;;22.49;49.46
31337;BME280;22846;42.654;23.314;2023-12-20T02:01:26;94707.50;;;22.48;49.55
31337;BME280;22846;42.654;23.314;2023-12-20T02:03:53;94704.78;;;22.48;49.90
31337;BME280;22846;42.654;23.314;2023-12-20T02:06:21;94697.03;;;22.46;49.62
31337;BME280;22846;42.654;23.314;2023-12-20T02:08:48;94691.59;;;22.46;49.41
31337;BME280;22846;42.654;23.314;2023-12-20T02:11:15;94690.84;;;22.46;49.43
31337;BME280;22846;42.654;23.314;2023-12-20T02:13:40;94686.66;;;22.41;49.68
31337;BME280;22846;42.654;23.314;2023-12-20T02:16:06;94689.31;;;22.45;49.53
31337;BME280;22846;42.654;23.314;2023-12-20T02:18:32;94679.31;;;22.38;49.36
31337;BME280;22846;42.654;23.314;2023-12-20T02:20:58;94654.59;;;22.29;49.53
31337;BME280;22846;42.654;23.314;2023-12-20T02:23:23;94680.03;;;22.42;49.60
31337;BME280;22846;42.654;23.314;2023-12-20T02:25:49;94672.34;;;22.37;49.52
31337;BME280;22846;42.654;23.314;2023-12-20T02:28:15;94677.72;;;22.41;49.89
31337;BME280;22846;42.654;23.314;2023-12-20T02:30:41;94674.25;;;22.40;49.56
31337;BME280;22846;42.654;23.314;2023-12-20T02:33:08;94655.34;;;22.33;49.43
31337;BME280;22846;42.654;23.314;2023-12-20T02:35:36;94643.88;;;22.23;49.72
31337;BME280;22846;42.654;23.314;2023-12-20T02:38:02;94657.97;;;22.37;49.90
31337;BME280;22846;42.654;23.314;2023-12-20T02:40:27;94658.72;;;22.37;49.95
31337;BME280;22846;42.654;23.314;2023-12-20T02:42:52;94652.53;;;22.37;49.69
31337;BME280;22846;42.654;23.314;2023-12-20T02:45:18;94656.44;;;22.36;50.00
31337;BME280;22846;42.654;23.314;2023-12-20T02:47:43;94656.84;;;22.34;50.01
31337;BME280;22846;42.654;23.314;2023-12-20T02:50:08;94656.09;;;22.34;49.95
31337;BME280;22846;42.654;23.314;2023-12-20T02:52:34;94644.44;;;22.33;50.06
31337;BME280;22846;42.654;23.314;2023-12-20T02:54:59;94651.84;;;22.33;50.24
31337;BME280;22846;42.654;23.314;2023-12-20T02:57:25;94647.56;;;22.32;49.99
31337;BME280;22846;42.654;23.314;2023-12-20T02:59:50;94652.28;;;22.31;50.03
31337;BME280;22846;42.654;23.314;2023-12-20T03:02:15;94636.91;;;22.22;49.83
31337;BME280;22846;42.654;23.314;2023-12-20T03:04:41;94649.16;;;22.29;49.90
31337;BME280;22846;42.654;23.314;2023-12-20T03:07:06;94644.91;;;22.28;50.02
31337;BME280;22846;42.654;23.314;2023-12-20T03:09:31;94642.19;;;22.28;49.90
31337;BME280;22846;42.654;23.314;2023-12-20T03:11:57;94642.63;;;22.27;50.03
31337;BME280;22846;42.654;23.314;2023-12-20T03:14:22;94646.16;;;22.24;50.02
31337;BME280;22846;42.654;23.314;2023-12-20T03:16:51;94635.81;;;22.19;50.17
31337;BME280;22846;42.654;23.314;2023-12-20T03:19:17;94636.06;;;22.24;49.84
31337;BME280;22846;42.654;23.314;2023-12-20T03:21:44;94607.09;;;21.99;50.07
31337;BME280;22846;42.654;23.314;2023-12-20T03:24:09;94652.41;;;22.24;49.90
31337;BME280;22846;42.654;23.314;2023-12-20T03:26:34;94632.72;;;22.17;50.05
31337;BME280;22846;42.654;23.314;2023-12-20T03:29:00;94637.66;;;22.22;49.90
31337;BME280;22846;42.654;23.314;2023-12-20T03:31:25;94613.84;;;22.10;50.00
31337;BME280;22846;42.654;23.314;2023-12-20T03:33:51;94607.28;;;22.08;49.95
31337;BME280;22846;42.654;23.314;2023-12-20T03:36:18;94630.69;;;22.21;50.08
31337;BME280;22846;42.654;23.314;2023-12-20T03:38:44;94632.66;;;22.21;50.18
31337;BME280;22846;42.654;23.314;2023-12-20T03:41:09;94620.72;;;22.15;50.24
31337;BME280;22846;42.654;23.314;2023-12-20T03:43:35;94627.19;;;22.21;50.33
31337;BME280;22846;42.654;23.314;2023-12-20T03:46:00;94625.75;;;22.16;50.00
31337;BME280;22846;42.654;23.314;2023-12-20T03:48:25;94633.06;;;22.19;50.18
31337;BME280;22846;42.654;23.314;2023-12-20T03:50:51;94628.38;;;22.20;49.86
31337;BME280;22846;42.654;23.314;2023-12-20T03:53:16;94631.53;;;22.18;50.11
31337;BME280;22846;42.654;23.314;2023-12-20T03:55:42;94625.31;;;22.18;50.34
31337;BME280;22846;42.654;23.314;2023-12-20T03:58:07;94630.00;;;22.17;50.19
31337;BME280;22846;42.654;23.314;2023-12-20T04:00:33;94623.81;;;22.17;50.28
31337;BME280;22846;42.654;23.314;2023-12-20T04:02:58;94610.69;;;22.12;50.13
31337;BME280;22846;42.654;23.314;2023-12-20T04:05:23;94604.56;;;22.08;50.33
31337;BME280;22846;42.654;23.314;2023-12-20T04:07:49;94605.66;;;22.10;50.31
31337;BME280;22846;42.654;23.314;2023-12-20T04:10:15;94592.22;;;22.03;50.01
31337;BME280;22846;42.654;23.314;2023-12-20T04:12:41;94604.06;;;22.13;49.94
31337;BME280;22846;42.654;23.314;2023-12-20T04:15:06;94606.03;;;22.12;50.52
31337;BME280;22846;42.654;23.314;2023-12-20T04:17:35;94601.75;;;22.11;50.30
31337;BME280;22846;42.654;23.314;2023-12-20T04:20:01;94596.31;;;22.11;50.29
31337;BME280;22846;42.654;23.314;2023-12-20T04:22:26;94594.44;;;22.08;50.36
31337;BME280;22846;42.654;23.314;2023-12-20T04:24:52;94594.78;;;22.10;50.12
31337;BME280;22846;42.654;23.314;2023-12-20T04:27:17;94590.53;;;22.09;50.33
31337;BME280;22846;42.654;23.314;2023-12-20T04:29:42;94586.69;;;22.07;50.33
31337;BME280;22846;42.654;23.314;2023-12-20T04:32:08;94595.19;;;22.09;50.09
31337;BME280;22846;42.654;23.314;2023-12-20T04:34:33;94591.72;;;22.08;50.55
31337;BME280;22846;42.654;23.314;2023-12-20T04:36:59;94571.28;;;22.00;50.62
31337;BME280;22846;42.654;23.314;2023-12-20T04:39:24;94566.53;;;22.04;50.60
31337;BME280;22846;42.654;23.314;2023-12-20T04:41:49;94572.31;;;22.06;50.37
31337;BME280;22846;42.654;23.314;2023-12-20T04:44:15;94571.28;;;22.00;50.36
31337;BME280;22846;42.654;23.314;2023-12-20T04:46:41;94575.03;;;22.06;50.77
31337;BME280;22846;42.654;23.314;2023-12-20T04:49:06;94566.88;;;22.22;50.89
31337;BME280;22846;42.654;23.314;2023-12-20T04:51:35;94573.06;;;22.42;52.24
31337;BME280;22846;42.654;23.314;2023-12-20T04:54:01;94565.97;;;22.60;51.38
31337;BME280;22846;42.654;23.314;2023-12-20T04:56:27;94546.50;;;22.62;50.64
31337;BME280;22846;42.654;23.314;2023-12-20T04:58:52;94546.47;;;22.78;50.43
31337;BME280;22846;42.654;23.314;2023-12-20T05:01:18;94568.34;;;23.06;50.35
31337;BME280;22846;42.654;23.314;2023-12-20T05:03:43;94565.31;;;23.16;50.27
31337;BME280;22846;42.654;23.314;2023-12-20T05:06:09;94551.19;;;23.21;49.72
31337;BME280;22846;42.654;23.314;2023-12-20T05:08:35;94559.09;;;23.44;49.59
31337;BME280;22846;42.654;23.314;2023-12-20T05:11:01;94549.94;;;23.51;49.26
31337;BME280;22846;42.654;23.314;2023-12-20T05:13:26;94564.13;;;23.74;49.02
31337;BME280;22846;42.654;23.314;2023-12-20T05:15:53;94528.91;;;23.64;48.37
31337;BME280;22846;42.654;23.314;2023-12-20T05:18:20;94559.88;;;23.98;48.41
31337;BME280;22846;42.654;23.314;2023-12-20T05:20:45;94538.78;;;23.98;47.89
31337;BME280;22846;42.654;23.314;2023-12-20T05:23:11;94548.63;;;24.08;48.27
31337;BME280;22846;42.654;23.314;2023-12-20T05:25:38;94550.72;;;24.17;47.84
31337;BME280;22846;42.654;23.314;2023-12-20T05:28:04;94542.31;;;24.24;48.29
31337;BME280;22846;42.654;23.314;2023-12-20T05:30:30;94536.38;;;24.25;47.59
31337;BME280;22846;42.654;23.314;2023-12-20T05:32:56;94530.72;;;24.32;46.98
31337;BME280;22846;42.654;23.314;2023-12-20T05:35:21;94536.81;;;24.36;46.47
31337;BME280;22846;42.654;23.314;2023-12-20T05:37:48;94525.91;;;24.36;45.39
31337;BME280;22846;42.654;23.314;2023-12-20T05:40:14;94534.75;;;24.40;45.05
31337;BME280;22846;42.654;23.314;2023-12-20T05:42:39;94537.16;;;24.38;46.56
31337;BME280;22846;42.654;23.314;2023-12-20T05:45:05;94532.34;;;24.30;46.90
31337;BME280;22846;42.654;23.314;2023-12-20T05:47:31;94527.13;;;24.23;46.08
31337;BME280;22846;42.654;23.314;2023-12-20T05:49:56;94531.28;;;24.15;46.10
31337;BME280;22846;42.654;23.314;2023-12-20T05:52:22;94536.19;;;24.07;46.32
31337;BME280;22846;42.654;23.314;2023-12-20T05:54:47;94522.41;;;23.98;46.45
31337;BME280;22846;42.654;23.314;2023-12-20T05:57:13;94531.28;;;23.90;46.54
31337;BME280;22846;42.654;23.314;2023-12-20T05:59:38;94527.97;;;23.83;46.63
31337;BME280;22846;42.654;23.314;2023-12-20T06:02:04;94521.22;;;23.75;46.84
31337;BME280;22846;42.654;23.314;2023-12-20T06:04:30;94533.84;;;23.69;46.96
31337;BME280;22846;42.654;23.314;2023-12-20T06:06:55;94532.84;;;23.63;47.40
31337;BME280;22846;42.654;23.314;2023-12-20T06:09:21;94522.91;;;23.56;47.20
31337;BME280;22846;42.654;23.314;2023-12-20T06:11:46;94500.59;;;23.33;47.14
31337;BME280;22846;42.654;23.314;2023-12-20T06:14:12;94509.75;;;23.39;47.55
31337;BME280;22846;42.654;23.314;2023-12-20T06:16:37;94527.66;;;23.40;47.68
31337;BME280;22846;42.654;23.314;2023-12-20T06:19:02;94529.75;;;23.36;48.00
31337;BME280;22846;42.654;23.314;2023-12-20T06:21:28;94527.53;;;23.31;47.91
31337;BME280;22846;42.654;23.314;2023-12-20T06:23:54;94516.19;;;23.20;48.08
31337;BME280;22846;42.654;23.314;2023-12-20T06:26:20;94535.16;;;23.23;48.31
31337;BME280;22846;42.654;23.314;2023-12-20T06:28:45;94541.47;;;23.20;48.04
31337;BME280;22846;42.654;23.314;2023-12-20T06:31:11;94519.75;;;23.17;48.32
31337;BME280;22846;42.654;23.314;2023-12-20T06:33:36;94535.78;;;23.15;48.40
31337;BME280;22846;42.654;23.314;2023-12-20T06:36:02;94492.50;;;22.89;48.26
31337;BME280;22846;42.654;23.314;2023-12-20T06:38:27;94524.28;;;23.08;48.43
31337;BME280;22846;42.654;23.314;2023-12-20T06:40:53;94520.06;;;23.07;48.27
31337;BME280;22846;42.654;23.314;2023-12-20T06:43:19;94516.22;;;23.04;48.42
31337;BME280;22846;42.654;23.314;2023-12-20T06:45:44;94530.25;;;23.03;48.18
31337;BME280;22846;42.654;23.314;2023-12-20T06:48:09;94506.56;;;23.00;48.28
31337;BME280;22846;42.654;23.314;2023-12-20T06:50:37;94511.25;;;22.99;48.48
31337;BME280;22846;42.654;23.314;2023-12-20T06:53:05;94515.97;;;22.99;48.48
31337;BME280;22846;42.654;23.314;2023-12-20T06:55:32;94484.25;;;22.76;48.44
31337;BME280;22846;42.654;23.314;2023-12-20T06:57:58;94505.31;;;22.88;48.47
31337;BME280;22846;42.654;23.314;2023-12-20T07:00:23;94502.41;;;22.95;48.65
31337;BME280;22846;42.654;23.314;2023-12-20T07:02:48;94498.19;;;22.94;48.51
31337;BME280;22846;42.654;23.314;2023-12-20T07:05:16;94499.03;;;22.91;48.50
31337;BME280;22846;42.654;23.314;2023-12-20T07:07:42;94498.25;;;22.91;48.76
31337;BME280;22846;42.654;23.314;2023-12-20T07:10:08;94493.25;;;22.89;48.62
31337;BME280;22846;42.654;23.314;2023-12-20T07:12:33;94500.66;;;22.89;48.80
31337;BME280;22846;42.654;23.314;2023-12-20T07:14:59;94468.97;;;22.66;49.14
31337;BME280;22846;42.654;23.314;2023-12-20T07:17:24;94491.38;;;22.86;49.29
31337;BME280;22846;42.654;23.314;2023-12-20T07:19:49;94479.38;;;22.84;49.29
31337;BME280;22846;42.654;23.314;2023-12-20T07:22:15;94473.69;;;22.78;49.39
31337;BME280;22846;42.654;23.314;2023-12-20T07:24:40;94467.47;;;22.78;49.77
31337;BME280;22846;42.654;23.314;2023-12-20T07:27:06;94480.91;;;22.85;49.71
31337;BME280;22846;42.654;23.314;2023-12-20T07:29:31;94478.97;;;22.85;49.86
31337;BME280;22846;42.654;23.314;2023-12-20T07:31:56;94454.28;;;22.76;49.63
31337;BME280;22846;42.654;23.314;2023-12-20T07:34:22;94480.16;;;22.84;50.01
31337;BME280;22846;42.654;23.314;2023-12-20T07:36:47;94471.19;;;22.84;49.75
31337;BME280;22846;42.654;23.314;2023-12-20T07:39:13;94485.25;;;22.82;49.78
31337;BME280;22846;42.654;23.314;2023-12-20T07:41:39;94475.91;;;22.83;50.05
31337;BME280;22846;42.654;23.314;2023-12-20T07:44:04;94482.53;;;22.82;49.64
31337;BME280;22846;42.654;23.314;2023-12-20T07:46:30;94493.44;;;22.82;49.63
31337;BME280;22846;42.654;23.314;2023-12-20T07:48:55;94481.00;;;22.81;49.72
31337;BME280;22846;42.654;23.314;2023-12-20T07:51:21;94482.19;;;22.80;49.67
31337;BME280;22846;42.654;23.314;2023-12-20T07:53:46;94452.97;;;22.68;49.68
31337;BME280;22846;42.654;23.314;2023-12-20T07:56:18;94475.66;;;22.78;49.80
31337;BME280;22846;42.654;23.314;2023-12-20T07:58:44;94457.28;;;22.66;49.49
31337;BME280;22846;42.654;23.314;2023-12-20T08:01:11;94464.84;;;22.74;49.71
31337;BME280;22846;42.654;23.314;2023-12-20T08:03:36;94465.47;;;22.66;49.41
31337;BME280;22846;42.654;23.314;2023-12-20T08:06:02;94474.56;;;22.75;49.82
31337;BME280;22846;42.654;23.314;2023-12-20T08:08:27;94467.56;;;22.74;49.64
31337;BME280;22846;42.654;23.314;2023-12-20T08:10:53;94471.06;;;22.75;50.02
31337;BME280;22846;42.654;23.314;2023-12-20T08:13:18;94441.38;;;22.64;50.04
31337;BME280;22846;42.654;23.314;2023-12-20T08:15:44;94439.09;;;22.63;49.58
31337;BME280;22846;42.654;23.314;2023-12-20T08:18:09;94455.91;;;22.74;49.54
31337;BME280;22846;42.654;23.314;2023-12-20T08:20:35;94461.34;;;22.74;49.71
31337;BME280;22846;42.654;23.314;2023-12-20T08:23:00;94446.72;;;22.68;49.54
31337;BME280;22846;42.654;23.314;2023-12-20T08:25:26;94447.72;;;22.74;49.52
31337;BME280;22846;42.654;23.314;2023-12-20T08:27:52;94448.69;;;22.67;49.31
31337;BME280;22846;42.654;23.314;2023-12-20T08:30:18;94433.56;;;22.66;49.16
31337;BME280;22846;42.654;23.314;2023-12-20T08:32:47;94439.25;;;22.72;49.40
31337;BME280;22846;42.654;23.314;2023-12-20T08:35:13;94414.16;;;22.64;49.70
31337;BME280;22846;42.654;23.314;2023-12-20T08:37:38;94429.44;;;22.74;49.71
31337;BME280;22846;42.654;23.314;2023-12-20T08:40:04;94431.38;;;22.74;49.38
31337;BME280;22846;42.654;23.314;2023-12-20T08:42:30;94421.78;;;22.69;49.77
31337;BME280;22846;42.654;23.314;2023-12-20T08:44:57;94417.44;;;22.72;49.90
31337;BME280;22846;42.654;23.314;2023-12-20T08:47:23;94422.56;;;22.70;50.03
31337;BME280;22846;42.654;23.314;2023-12-20T08:49:49;94404.00;;;22.65;50.31
31337;BME280;22846;42.654;23.314;2023-12-20T08:52:14;94420.28;;;22.68;49.96
31337;BME280;22846;42.654;23.314;2023-12-20T08:54:40;94413.28;;;22.67;50.07
31337;BME280;22846;42.654;23.314;2023-12-20T08:57:05;94405.63;;;22.62;50.05
31337;BME280;22846;42.654;23.314;2023-12-20T08:59:32;94410.66;;;22.64;49.77
31337;BME280;22846;42.654;23.314;2023-12-20T09:01:57;94405.63;;;22.62;49.57
31337;BME280;22846;42.654;23.314;2023-12-20T09:04:23;94387.84;;;22.58;49.53
31337;BME280;22846;42.654;23.314;2023-12-20T09:06:48;94398.25;;;22.63;49.44
31337;BME280;22846;42.654;23.314;2023-12-20T09:09:14;94380.28;;;22.65;49.45
31337;BME280;22846;42.654;23.314;2023-12-20T09:11:40;94357.00;;;22.48;49.17
31337;BME280;22846;42.654;23.314;2023-12-20T09:14:05;94359.44;;;22.59;49.27
31337;BME280;22846;42.654;23.314;2023-12-20T09:16:31;94349.22;;;22.63;49.12
31337;BME280;22846;42.654;23.314;2023-12-20T09:18:57;94356.63;;;22.62;48.97
31337;BME280;22846;42.654;23.314;2023-12-20T09:21:22;94335.25;;;22.61;48.96
31337;BME280;22846;42.654;23.314;2023-12-20T09:23:48;94317.25;;;22.51;48.94
31337;BME280;22846;42.654;23.314;2023-12-20T09:26:13;94336.47;;;22.60;48.90
31337;BME280;22846;42.654;23.314;2023-12-20T09:28:38;94324.81;;;22.59;48.87
31337;BME280;22846;42.654;23.314;2023-12-20T09:31:05;94323.28;;;22.58;48.93
31337;BME280;22846;42.654;23.314;2023-12-20T09:33:32;94318.59;;;22.59;49.12
31337;BME280;22846;42.654;23.314;2023-12-20T09:35:57;94296.66;;;22.50;49.26
31337;BME280;22846;42.654;23.314;2023-12-20T09:38:23;94310.06;;;22.57;48.92
31337;BME280;22846;42.654;23.314;2023-12-20T09:40:48;94305.41;;;22.57;48.93
31337;BME280;22846;42.654;23.314;2023-12-20T09:43:15;94290.38;;;22.53;49.04
31337;BME280;22846;42.654;23.314;2023-12-20T09:45:46;94298.88;;;22.55;49.39
31337;BME280;22846;42.654;23.314;2023-12-20T09:48:12;94273.81;;;22.47;49.28
31337;BME280;22846;42.654;23.314;2023-12-20T09:50:40;94233.63;;;22.23;49.48
31337;BME280;22846;42.654;23.314;2023-12-20T09:53:08;94281.75;;;22.54;49.46
31337;BME280;22846;42.654;23.314;2023-12-20T09:55:36;94273.25;;;22.52;49.26
31337;BME280;22846;42.654;23.314;2023-12-20T09:58:01;94277.50;;;22.53;49.88
31337;BME280;22846;42.654;23.314;2023-12-20T10:00:27;94268.16;;;22.54;49.68
31337;BME280;22846;42.654;23.314;2023-12-20T10:03:01;94256.91;;;22.40;50.08
31337;BME280;22846;42.654;23.314;2023-12-20T10:05:31;94267.81;;;22.52;50.59
31337;BME280;22846;42.654;23.314;2023-12-20T10:07:57;94259.00;;;22.48;49.47
31337;BME280;22846;42.654;23.314;2023-12-20T10:10:23;94261.81;;;22.45;49.57
31337;BME280;22846;42.654;23.314;2023-12-20T10:13:09;94258.88;;;22.52;49.17
31337;BME280;22846;42.654;23.314;2023-12-20T10:15:36;94240.38;;;22.47;49.33
31337;BME280;22846;42.654;23.314;2023-12-20T10:18:02;94254.19;;;22.52;49.07
31337;BME280;22846;42.654;23.314;2023-12-20T10:20:29;94230.81;;;22.55;50.01
31337;BME280;22846;42.654;23.314;2023-12-20T10:22:55;94245.91;;;22.56;50.27
31337;BME280;22846;42.654;23.314;2023-12-20T10:25:21;94215.94;;;22.43;50.09
31337;BME280;22846;42.654;23.314;2023-12-20T10:27:47;94218.25;;;22.45;50.55
31337;BME280;22846;42.654;23.314;2023-12-20T10:30:16;94201.81;;;22.48;49.81
31337;BME280;22846;42.654;23.314;2023-12-20T10:32:42;94208.56;;;22.56;49.61
31337;BME280;22846;42.654;23.314;2023-12-20T10:35:08;94196.25;;;22.52;49.74
31337;BME280;22846;42.654;23.314;2023-12-20T10:37:37;94212.59;;;22.64;49.67
31337;BME280;22846;42.654;23.314;2023-12-20T10:40:04;94207.50;;;22.66;49.94
31337;BME280;22846;42.654;23.314;2023-12-20T10:42:31;94202.38;;;22.68;49.55
31337;BME280;22846;42.654;23.314;2023-12-20T10:44:59;94188.31;;;22.70;49.37
31337;BME280;22846;42.654;23.314;2023-12-20T10:47:25;94187.13;;;22.71;49.65
31337;BME280;22846;42.654;23.314;2023-12-20T10:49:54;94188.19;;;22.73;49.17
31337;BME280;22846;42.654;23.314;2023-12-20T10:52:23;94173.81;;;22.60;49.20
31337;BME280;22846;42.654;23.314;2023-12-20T10:54:48;94160.00;;;22.67;49.10
31337;BME280;22846;42.654;23.314;2023-12-20T10:57:18;94145.38;;;22.49;49.25
31337;BME280;22846;42.654;23.314;2023-12-20T10:59:45;94159.75;;;22.74;49.56
31337;BME280;22846;42.654;23.314;2023-12-20T11:02:12;94155.41;;;22.64;49.33
31337;BME280;22846;42.654;23.314;2023-12-20T11:07:31;94163.69;;;22.73;49.47
31337;BME280;22846;42.654;23.314;2023-12-20T11:10:44;94157.03;;;22.74;49.69
31337;BME280;22846;42.654;23.314;2023-12-20T11:13:28;94144.06;;;22.66;49.18
31337;BME280;22846;42.654;23.314;2023-12-20T11:15:55;94153.13;;;22.75;49.42
31337;BME280;22846;42.654;23.314;2023-12-20T11:18:29;94138.72;;;22.75;49.06
31337;BME280;22846;42.654;23.314;2023-12-20T11:21:00;94122.38;;;22.75;49.28
31337;BME280;22846;42.654;23.314;2023-12-20T11:23:25;94131.63;;;22.77;49.38
31337;BME280;22846;42.654;23.314;2023-12-20T11:25:56;94128.03;;;22.80;49.31
31337;BME280;22846;42.654;23.314;2023-12-20T11:28:25;94116.69;;;22.82;49.12
31337;BME280;22846;42.654;23.314;2023-12-20T11:30:56;94092.97;;;22.70;49.07
31337;BME280;22846;42.654;23.314;2023-12-20T11:33:23;94105.72;;;22.85;49.50
31337;BME280;22846;42.654;23.314;2023-12-20T11:35:49;94072.59;;;22.74;49.53
31337;BME280;22846;42.654;23.314;2023-12-20T11:38:15;94085.41;;;22.86;49.61
31337;BME280;22846;42.654;23.314;2023-12-20T11:40:43;94092.72;;;22.89;49.34
31337;BME280;22846;42.654;23.314;2023-12-20T11:43:09;94062.91;;;22.73;49.12
31337;BME280;22846;42.654;23.314;2023-12-20T11:45:35;94090.31;;;22.91;49.66
31337;BME280;22846;42.654;23.314;2023-12-20T11:48:02;94073.44;;;22.84;49.55
31337;BME280;22846;42.654;23.314;2023-12-20T11:50:28;94075.81;;;22.94;49.56
31337;BME280;22846;42.654;23.314;2023-12-20T11:52:56;94057.75;;;22.88;49.39
31337;BME280;22846;42.654;23.314;2023-12-20T11:55:22;94063.41;;;22.93;49.66
31337;BME280;22846;42.654;23.314;2023-12-20T11:57:50;94047.19;;;22.90;49.43
31337;BME280;22846;42.654;23.314;2023-12-20T12:00:15;94044.94;;;22.97;49.28
31337;BME280;22846;42.654;23.314;2023-12-20T12:02:41;94046.47;;;22.98;49.01
31337;BME280;22846;42.654;23.314;2023-12-20T12:05:07;94030.59;;;22.97;49.63
31337;BME280;22846;42.654;23.314;2023-12-20T12:07:33;94027.84;;;22.97;49.17
31337;BME280;22846;42.654;23.314;2023-12-20T12:10:00;94038.31;;;22.98;49.51
31337;BME280;22846;42.654;23.314;2023-12-20T12:12:25;94026.94;;;23.00;49.87
31337;BME280;22846;42.654;23.314;2023-12-20T12:14:53;94020.75;;;22.99;49.62
31337;BME280;22846;42.654;23.314;2023-12-20T12:17:18;94017.59;;;23.01;49.11
31337;BME280;22846;42.654;23.314;2023-12-20T12:19:44;94014.09;;;23.00;49.10
31337;BME280;22846;42.654;23.314;2023-12-20T12:22:11;94012.91;;;23.01;49.86
31337;BME280;22846;42.654;23.314;2023-12-20T12:24:46;94014.84;;;23.01;49.54
31337;BME280;22846;42.654;23.314;2023-12-20T12:27:12;94014.44;;;23.02;49.50
31337;BME280;22846;42.654;23.314;2023-12-20T12:29:38;93994.25;;;23.00;49.07
31337;BME280;22846;42.654;23.314;2023-12-20T12:32:08;93989.19;;;22.89;49.36
31337;BME280;22846;42.654;23.314;2023-12-20T12:34:34;93998.09;;;23.02;49.63
31337;BME280;22846;42.654;23.314;2023-12-20T12:37:00;94002.75;;;23.02;49.50
31337;BME280;22846;42.654;23.314;2023-12-20T12:39:25;93992.09;;;22.95;49.57
31337;BME280;22846;42.654;23.314;2023-12-20T12:41:51;93995.34;;;23.02;49.56
31337;BME280;22846;42.654;23.314;2023-12-20T12:44:17;93996.09;;;23.03;49.80
31337;BME280;22846;42.654;23.314;2023-12-20T12:46:43;93991.84;;;23.02;49.29
31337;BME280;22846;42.654;23.314;2023-12-20T12:49:09;93980.47;;;22.94;49.53